Sodville, Texas
Current Conditions -  °F | °C
As of 9:14 AM on Friday 31 Oct 2014 (Local Time) from KCRP Reporting Station
Thunderstorm Thunderstorm  
Wind Chill: 70°   Ceiling: 8000
Heat Index: 70°   Visibility: 7mi
Dew Point: 69°   Wind: 6mph
Humidity: 97%   Direction: 10°N
Pressure: 30.19"   Gusts: NA
Location:  28.0577°N, 97.5365°W
Report Text: KCRP 311414Z 01005KT 7SM -TSRA FEW007 SCT027CB BKN080 OVC130 21/21 A3019 RMK AO2 OCNL LTGICCGCC S-W TS S-W MOV S P0002 T02110206
Loading
Personal Weather Stations






























Interactive Weather Map
Tropical Storm Tracking
New forecast layout! Learn more

10-Day Weather Forecast

Advertisements
Track Severe Weather on mobile